createdAt,value
2019-04-01T00:04:22.529Z,102203.86
2019-04-01T00:06:51.115Z,102210.47
2019-04-01T00:09:19.665Z,102209.42
2019-04-01T00:11:48.294Z,102210.98
2019-04-01T00:14:16.905Z,102211.11
2019-04-01T00:16:45.884Z,102210.44
2019-04-01T00:19:17.537Z,102217.35
2019-04-01T00:21:49.336Z,102223.36
2019-04-01T00:24:17.892Z,102215.92
2019-04-01T00:26:48.115Z,102216.61
2019-04-01T00:29:19.713Z,102213.95
2019-04-01T00:31:48.351Z,102217.56
2019-04-01T00:34:16.930Z,102220.00
2019-04-01T00:36:45.514Z,102213.78
2019-04-01T00:39:14.999Z,102216.70
2019-04-01T00:41:48.636Z,102218.56
2019-04-01T00:44:17.566Z,102220.02
2019-04-01T00:46:49.383Z,102215.97
2019-04-01T00:49:18.189Z,102214.27
2019-04-01T00:51:49.979Z,102215.19
2019-04-01T00:54:18.587Z,102222.16
2019-04-01T00:56:47.214Z,102218.27
2019-04-01T00:59:17.469Z,102214.78
2019-04-01T01:01:49.569Z,102214.27
2019-04-01T01:04:18.179Z,102224.34
2019-04-01T01:06:49.756Z,102219.03
2019-04-01T01:09:18.396Z,102218.14
2019-04-01T01:11:47.201Z,102216.37
2019-04-01T01:14:17.360Z,102217.53
2019-04-01T01:16:47.819Z,102217.68
2019-04-01T01:19:16.543Z,102210.56
2019-04-01T01:21:45.153Z,102217.11
2019-04-01T01:24:13.775Z,102213.25
2019-04-01T01:26:42.394Z,102215.12
2019-04-01T01:29:11.002Z,102220.78
2019-04-01T01:31:39.619Z,102216.48
2019-04-01T01:34:08.231Z,102222.80
2019-04-01T01:36:36.848Z,102221.98
2019-04-01T01:39:06.479Z,102223.22
2019-04-01T01:41:35.098Z,102228.22
2019-04-01T01:44:04.338Z,102232.38
2019-04-01T01:46:33.055Z,102224.53
2019-04-01T01:49:01.983Z,102228.17
2019-04-01T01:51:30.596Z,102229.16
2019-04-01T01:53:59.203Z,102226.98
2019-04-01T01:56:27.820Z,102229.09
2019-04-01T01:58:56.429Z,102234.51
2019-04-01T02:01:25.051Z,102238.58
2019-04-01T02:03:53.676Z,102229.66
2019-04-01T02:06:22.292Z,102232.84
2019-04-01T02:08:51.318Z,102234.94
2019-04-01T02:11:20.850Z,102238.98
2019-04-01T02:13:49.873Z,102237.35
2019-04-01T02:16:18.486Z,102238.84
2019-04-01T02:18:47.099Z,102239.81
2019-04-01T02:21:15.703Z,102246.66
2019-04-01T02:23:47.403Z,102246.63
2019-04-01T02:26:17.563Z,102239.55
2019-04-01T02:28:49.347Z,102246.48
2019-04-01T02:31:17.960Z,102252.80
2019-04-01T02:33:48.114Z,102250.39
2019-04-01T02:36:18.287Z,102250.03
2019-04-01T02:38:49.587Z,102256.37
2019-04-01T02:41:18.368Z,102248.95
2019-04-01T02:43:46.998Z,102251.16
2019-04-01T02:46:15.629Z,102252.09
2019-04-01T02:48:44.542Z,102248.99
2019-04-01T02:51:13.161Z,102248.09
2019-04-01T02:53:41.801Z,102244.11
2019-04-01T02:56:10.405Z,102247.23
2019-04-01T02:58:39.022Z,102252.91
2019-04-01T03:01:07.584Z,102252.64
2019-04-01T03:03:36.232Z,102255.80
2019-04-01T03:06:04.856Z,102253.16
2019-04-01T03:08:33.461Z,102251.86
2019-04-01T03:11:02.101Z,102253.06
2019-04-01T03:13:30.714Z,102251.78
2019-04-01T03:15:59.337Z,102262.27
2019-04-01T03:18:27.946Z,102255.36
2019-04-01T03:20:56.655Z,102255.05
2019-04-01T03:23:25.370Z,102253.23
2019-04-01T03:25:53.978Z,102256.30
2019-04-01T03:28:22.599Z,102251.40
2019-04-01T03:30:51.241Z,102252.23
2019-04-01T03:33:20.285Z,102249.70
2019-04-01T03:35:48.874Z,102256.05
2019-04-01T03:38:17.484Z,102254.20
2019-04-01T03:40:52.153Z,102252.05
2019-04-01T03:43:20.771Z,102256.78
2019-04-01T03:45:49.383Z,102255.73
2019-04-01T03:48:17.934Z,102258.08
2019-04-01T03:50:48.058Z,102257.03
2019-04-01T03:53:19.359Z,102262.03
2019-04-01T03:55:47.941Z,102255.05
2019-04-01T03:58:18.043Z,102258.28
2019-04-01T04:00:49.608Z,102255.77
2019-04-01T04:03:18.190Z,102252.91
2019-04-01T04:05:49.876Z,102247.20
2019-04-01T04:08:18.437Z,102251.14
2019-04-01T04:10:47.080Z,102252.20
2019-04-01T04:13:16.022Z,102256.97
2019-04-01T04:15:45.083Z,102261.50
2019-04-01T04:18:13.759Z,102256.55
2019-04-01T04:20:42.445Z,102261.20
2019-04-01T04:23:11.157Z,102258.94
2019-04-01T04:25:39.896Z,102257.67
2019-04-01T04:28:08.525Z,102262.11
2019-04-01T04:30:37.222Z,102259.78
2019-04-01T04:33:05.815Z,102253.99
2019-04-01T04:35:34.548Z,102263.86
2019-04-01T04:38:03.150Z,102261.61
2019-04-01T04:40:31.767Z,102264.98
2019-04-01T04:43:00.369Z,102261.31
2019-04-01T04:45:28.976Z,102265.48
2019-04-01T04:47:57.603Z,102266.61
2019-04-01T04:50:26.311Z,102267.89
2019-04-01T04:52:54.873Z,102268.76
2019-04-01T04:55:23.638Z,102270.60
2019-04-01T04:57:52.247Z,102273.52
2019-04-01T05:00:21.370Z,102270.55
2019-04-01T05:02:49.976Z,102276.41
2019-04-01T05:05:19.010Z,102280.38
2019-04-01T05:07:47.640Z,102282.22
2019-04-01T05:10:16.713Z,102284.63
2019-04-01T05:12:48.258Z,102285.50
2019-04-01T05:15:19.657Z,102286.97
2019-04-01T05:17:48.781Z,102290.87
2019-04-01T05:20:17.505Z,102293.05
2019-04-01T05:22:49.200Z,102294.78
2019-04-01T05:25:18.224Z,102293.51
2019-04-01T05:27:51.952Z,102304.47
2019-04-01T05:30:20.666Z,102304.55
2019-04-01T05:32:52.790Z,102303.27
2019-04-01T05:35:22.699Z,102300.69
2019-04-01T05:37:51.510Z,102303.28
2019-04-01T05:40:20.229Z,102309.33
2019-04-01T05:42:49.036Z,102316.98
2019-04-01T05:45:17.647Z,102321.87
2019-04-01T05:47:47.999Z,102310.94
2019-04-01T05:50:18.254Z,102312.71
2019-04-01T05:52:50.174Z,102310.11
2019-04-01T05:55:19.159Z,102311.31
2019-04-01T05:57:47.869Z,102311.56
2019-04-01T06:00:20.785Z,102317.23
2019-04-01T06:02:48.700Z,102319.07
2019-04-01T06:05:17.729Z,102317.08
2019-04-01T06:07:46.660Z,102319.67
2019-04-01T06:10:18.340Z,102328.07
2019-04-01T06:12:47.272Z,102325.86
2019-04-01T06:15:17.844Z,102331.70
2019-04-01T06:17:46.469Z,102328.42
2019-04-01T06:20:15.588Z,102328.30
2019-04-01T06:22:47.385Z,102330.55
2019-04-01T06:25:19.179Z,102330.47
2019-04-01T06:27:47.787Z,102328.42
2019-04-01T06:30:16.500Z,102330.39
2019-04-01T06:32:45.319Z,102324.12
2019-04-01T06:35:14.333Z,102332.59
2019-04-01T06:37:43.144Z,102331.72
2019-04-01T06:40:12.263Z,102335.26
2019-04-01T06:42:40.978Z,102340.02
2019-04-01T06:45:10.098Z,102336.12
2019-04-01T06:47:38.707Z,102341.98
2019-04-01T06:50:07.523Z,102340.53
2019-04-01T06:52:36.134Z,102340.41
2019-04-01T06:55:06.122Z,102346.21
2019-04-01T06:57:35.025Z,102348.97
2019-04-01T07:00:03.703Z,102355.31
2019-04-01T07:02:32.324Z,102349.09
2019-04-01T07:05:01.045Z,102337.34
2019-04-01T07:07:29.757Z,102345.27
2019-04-01T07:09:58.363Z,102346.70
2019-04-01T07:12:27.003Z,102351.99
2019-04-01T07:14:55.614Z,102350.93
2019-04-01T07:17:24.221Z,102341.25
2019-04-01T07:19:52.942Z,102346.91
2019-04-01T07:22:21.864Z,102350.11
2019-04-01T07:24:50.574Z,102348.58
2019-04-01T07:27:19.294Z,102350.89
2019-04-01T07:29:47.900Z,102353.16
2019-04-01T07:32:18.152Z,102354.93
2019-04-01T07:34:49.841Z,102352.67
2019-04-01T07:37:18.861Z,102355.73
2019-04-01T07:39:47.681Z,102356.34
2019-04-01T07:42:16.387Z,102356.44
2019-04-01T07:44:45.098Z,102348.87
2019-04-01T07:47:13.809Z,102356.22
2019-04-01T07:49:42.514Z,102363.18
2019-04-01T07:52:11.230Z,102360.35
2019-04-01T07:54:39.836Z,102360.48
2019-04-01T07:57:08.447Z,102357.56
2019-04-01T07:59:37.164Z,102370.20
2019-04-01T08:02:05.869Z,102368.96
2019-04-01T08:04:34.480Z,102368.96
2019-04-01T08:07:03.203Z,102367.76
2019-04-01T08:09:31.918Z,102356.59
2019-04-01T08:12:00.533Z,102356.59
2019-04-01T08:14:29.184Z,102367.41
2019-04-01T08:16:58.731Z,102366.19
2019-04-01T08:19:27.520Z,102369.67
2019-04-01T08:21:56.234Z,102361.46
2019-04-01T08:24:25.171Z,102361.46
2019-04-01T08:26:53.875Z,102352.87
2019-04-01T08:29:30.121Z,102358.05
2019-04-01T08:31:52.935Z,102350.73
2019-04-01T08:34:21.648Z,102360.23
2019-04-01T08:36:50.262Z,102359.80
2019-04-01T08:39:19.380Z,102356.35
2019-04-01T08:41:48.099Z,102366.27
2019-04-01T08:44:18.146Z,102354.58
2019-04-01T08:46:49.643Z,102358.01
2019-04-01T08:49:18.251Z,102360.59
2019-04-01T08:51:50.037Z,102357.14
2019-04-01T08:54:18.744Z,102352.37
2019-04-01T08:56:47.558Z,102355.34
2019-04-01T08:59:16.503Z,102345.81
2019-04-01T09:01:45.114Z,102344.02
2019-04-01T09:04:13.953Z,102348.33
2019-04-01T09:06:42.557Z,102345.31
2019-04-01T09:09:11.163Z,102345.17
2019-04-01T09:11:39.786Z,102338.64
2019-04-01T09:14:08.378Z,102331.34
2019-04-01T09:16:38.158Z,102336.92
2019-04-01T09:19:06.828Z,102329.07
2019-04-01T09:21:35.541Z,102327.58
2019-04-01T09:24:04.256Z,102319.33
2019-04-01T09:26:32.861Z,102314.11
2019-04-01T09:29:01.776Z,102316.72
2019-04-01T09:31:30.493Z,102310.68
2019-04-01T09:33:59.101Z,102315.79
2019-04-01T09:36:28.115Z,102314.92
2019-04-01T09:38:56.732Z,102312.25
2019-04-01T09:41:25.336Z,102312.66
2019-04-01T09:43:53.945Z,102305.39
2019-04-01T09:46:22.553Z,102305.73
2019-04-01T09:48:51.574Z,102312.09
2019-04-01T09:51:20.185Z,102309.93
2019-04-01T09:53:48.793Z,102307.34
2019-04-01T09:56:17.399Z,102298.08
2019-04-01T09:58:46.137Z,102301.48
2019-04-01T10:01:14.954Z,102297.82
2019-04-01T10:03:43.991Z,102293.40
2019-04-01T10:06:12.592Z,102290.33
2019-04-01T10:08:42.807Z,102284.37
2019-04-01T10:11:12.844Z,102282.69
2019-04-01T10:13:41.611Z,102281.28
2019-04-01T10:16:10.223Z,102271.83
2019-04-01T10:18:38.836Z,102269.44
2019-04-01T10:21:07.849Z,102266.15
2019-04-01T10:23:36.400Z,102270.30
2019-04-01T10:26:05.068Z,102271.98
2019-04-01T10:28:33.889Z,102263.89
2019-04-01T10:31:02.694Z,102263.59
2019-04-01T10:33:31.307Z,102251.72
2019-04-01T10:35:59.919Z,102245.42
2019-04-01T10:38:28.732Z,102245.92
2019-04-01T10:40:57.346Z,102247.70
2019-04-01T10:43:26.064Z,102247.55
2019-04-01T10:45:54.663Z,102246.34
2019-04-01T10:48:23.414Z,102237.95
2019-04-01T10:50:52.058Z,102244.02
2019-04-01T10:53:20.798Z,102231.70
2019-04-01T10:55:49.416Z,102240.53
2019-04-01T10:58:18.090Z,102228.36
2019-04-01T11:00:48.320Z,102226.45
2019-04-01T11:03:19.728Z,102231.37
2019-04-01T11:05:48.609Z,102228.28
2019-04-01T11:08:17.211Z,102222.05
2019-04-01T11:10:47.449Z,102219.44
2019-04-01T11:13:16.587Z,102216.83
2019-04-01T11:15:45.313Z,102215.80
2019-04-01T11:18:13.919Z,102211.03
2019-04-01T11:20:42.727Z,102209.16
2019-04-01T11:23:11.338Z,102203.70
2019-04-01T11:25:40.360Z,102208.75
2019-04-01T11:28:09.378Z,102196.65
2019-04-01T11:30:37.998Z,102197.62
2019-04-01T11:33:07.806Z,102193.91
2019-04-01T11:35:36.847Z,102184.44
2019-04-01T11:38:05.463Z,102185.46
2019-04-01T11:40:34.067Z,102183.63
2019-04-01T11:43:04.977Z,102175.56
2019-04-01T11:45:33.142Z,102179.28
2019-04-01T11:48:01.779Z,102173.45
2019-04-01T11:50:30.777Z,102163.72
2019-04-01T11:52:59.564Z,102171.45
2019-04-01T11:55:28.114Z,102159.72
2019-04-01T11:57:56.784Z,102159.10
2019-04-01T12:00:26.400Z,102169.03
2019-04-01T12:02:55.129Z,102157.80
2019-04-01T12:05:23.736Z,102149.12
2019-04-01T12:07:52.873Z,102152.80
2019-04-01T12:10:21.892Z,102149.54
2019-04-01T12:12:51.027Z,102149.24
2019-04-01T12:15:19.771Z,102141.34
2019-04-01T12:17:48.369Z,102139.21
2019-04-01T12:20:16.990Z,102143.06
2019-04-01T12:22:46.210Z,102143.34
2019-04-01T12:25:15.132Z,102128.53
2019-04-01T12:27:45.135Z,102135.52
2019-04-01T12:30:16.259Z,102129.30
2019-04-01T12:32:46.717Z,102118.96
2019-04-01T12:35:19.344Z,102112.25
2019-04-01T12:37:48.264Z,102115.16
2019-04-01T12:40:20.149Z,102114.46
2019-04-01T12:42:50.980Z,102105.66
2019-04-01T12:45:19.827Z,102102.33
2019-04-01T12:47:48.845Z,102098.80
2019-04-01T12:50:17.561Z,102095.23
2019-04-01T12:52:49.245Z,102093.07
2019-04-01T12:55:17.863Z,102083.94
2019-04-01T12:57:48.618Z,102084.05
2019-04-01T13:00:17.649Z,102080.83
2019-04-01T13:02:46.259Z,102080.98
2019-04-01T13:05:16.609Z,102072.55
2019-04-01T13:07:45.432Z,102071.10
2019-04-01T13:10:14.253Z,102067.20
2019-04-01T13:12:46.467Z,102064.20
2019-04-01T13:15:15.765Z,102052.73
2019-04-01T13:17:45.027Z,102054.80
2019-04-01T13:20:14.074Z,102051.14
2019-04-01T13:22:42.984Z,102047.89
2019-04-01T13:25:11.678Z,102038.89
2019-04-01T13:27:40.254Z,102041.48
2019-04-01T13:30:09.478Z,102028.02
2019-04-01T13:32:38.053Z,102026.22
2019-04-01T13:35:06.950Z,102024.05
2019-04-01T13:37:35.530Z,102028.50
2019-04-01T13:40:04.818Z,102025.55
2019-04-01T13:42:33.391Z,102018.56
2019-04-01T13:45:02.544Z,102014.13
2019-04-01T13:47:31.129Z,102004.61
2019-04-01T13:49:59.663Z,102001.92
2019-04-01T13:52:28.246Z,101982.98
2019-04-01T13:54:56.821Z,101992.80
2019-04-01T13:57:25.381Z,101991.09
2019-04-01T13:59:53.939Z,101980.75
2019-04-01T14:02:22.504Z,101973.08
2019-04-01T14:04:51.061Z,101976.73
2019-04-01T14:07:20.555Z,101964.12
2019-04-01T14:09:50.752Z,101969.39
2019-04-01T14:12:19.395Z,101957.96
2019-04-01T14:14:47.984Z,101958.22
2019-04-01T14:17:18.075Z,101955.98
2019-04-01T14:19:48.191Z,101950.88
2019-04-01T14:22:20.263Z,101949.94
2019-04-01T14:24:49.177Z,101945.16
2019-04-01T14:27:17.719Z,101939.39
2019-04-01T14:29:46.306Z,101931.05
2019-04-01T14:32:18.308Z,101935.98
2019-04-01T14:34:50.171Z,101934.70
2019-04-01T14:37:25.129Z,101924.08
2019-04-01T14:39:47.899Z,101921.89
2019-04-01T14:42:16.523Z,101919.16
2019-04-01T14:44:53.755Z,101919.42
2019-04-01T14:47:22.303Z,101915.95
2019-04-01T14:49:51.327Z,101904.58
2019-04-01T14:52:31.696Z,101903.41
2019-04-01T14:54:50.259Z,101905.09
2019-04-01T14:57:18.812Z,101910.02
2019-04-01T14:59:47.382Z,101907.47
2019-04-01T15:02:17.448Z,101902.73
2019-04-01T15:04:46.193Z,101896.89
2019-04-01T15:07:18.280Z,101901.09
2019-04-01T15:09:49.994Z,101895.34
2019-04-01T15:12:18.547Z,101892.55
2019-04-01T15:14:47.124Z,101887.33
2019-04-01T15:17:16.588Z,101888.39
2019-04-01T15:19:49.027Z,101877.26
2019-04-01T15:22:17.912Z,101865.72
2019-04-01T15:24:48.123Z,101871.51
2019-04-01T15:27:22.436Z,101868.81
2019-04-01T15:29:49.973Z,101863.04
2019-04-01T15:32:18.600Z,101861.22
2019-04-01T15:34:47.624Z,101855.66
2019-04-01T15:37:16.361Z,101858.77
2019-04-01T15:39:47.209Z,101854.94
2019-04-01T15:42:18.090Z,101846.84
2019-04-01T15:44:47.116Z,101847.69
2019-04-01T15:47:17.689Z,101840.56
2019-04-01T15:49:52.183Z,101836.22
2019-04-01T15:52:21.052Z,101827.58
2019-04-01T15:54:49.660Z,101837.50
2019-04-01T15:57:18.682Z,101828.08
2019-04-01T15:59:47.408Z,101826.80
2019-04-01T16:02:18.893Z,101829.50
2019-04-01T16:04:47.903Z,101818.83
2019-04-01T16:07:18.162Z,101816.76
2019-04-01T16:09:49.644Z,101817.40
2019-04-01T16:12:18.192Z,101822.24
2019-04-01T16:14:49.943Z,101812.78
2019-04-01T16:17:18.551Z,101809.42
2019-04-01T16:19:47.161Z,101801.12
2019-04-01T16:22:17.737Z,101803.80
2019-04-01T16:24:46.337Z,101806.31
2019-04-01T16:27:14.951Z,101803.28
2019-04-01T16:29:44.288Z,101802.89
2019-04-01T16:32:12.922Z,101797.98
2019-04-01T16:34:42.266Z,101797.88
2019-04-01T16:37:11.139Z,101797.02
2019-04-01T16:39:39.754Z,101789.59
2019-04-01T16:42:08.363Z,101796.39
2019-04-01T16:44:36.971Z,101796.50
2019-04-01T16:47:05.682Z,101792.92
2019-04-01T16:49:34.295Z,101795.73
2019-04-01T16:52:02.902Z,101786.37
2019-04-01T16:54:31.614Z,101792.13
2019-04-01T16:57:00.224Z,101788.42
2019-04-01T16:59:28.941Z,101788.96
2019-04-01T17:01:57.926Z,101790.45
2019-04-01T17:04:26.565Z,101791.41
2019-04-01T17:06:55.273Z,101790.64
2019-04-01T17:09:24.295Z,101783.54
2019-04-01T17:11:54.445Z,101788.06
2019-04-01T17:14:24.259Z,101785.56
2019-04-01T17:16:53.091Z,101789.17
2019-04-01T17:19:21.704Z,101790.56
2019-04-01T17:21:50.327Z,101789.52
2019-04-01T17:24:18.922Z,101791.43
2019-04-01T17:27:09.251Z,101790.63
2019-04-01T17:29:38.387Z,101791.15
2019-04-01T17:32:07.008Z,101797.72
2019-04-01T17:34:35.625Z,101794.95
2019-04-01T17:37:04.535Z,101795.17
2019-04-01T17:39:34.189Z,101796.69
2019-04-01T17:42:03.198Z,101794.70
2019-04-01T17:44:31.905Z,101791.33
2019-04-01T17:47:00.516Z,101794.50
2019-04-01T17:49:29.226Z,101800.25
2019-04-01T17:51:58.244Z,101794.31
2019-04-01T17:54:26.856Z,101790.25
2019-04-01T17:56:55.480Z,101783.94
2019-04-01T17:59:24.087Z,101788.66
2019-04-01T18:01:52.903Z,101792.29
2019-04-01T18:04:22.270Z,101784.47
2019-04-01T18:06:50.940Z,101785.01
2019-04-01T18:09:19.650Z,101788.58
2019-04-01T18:11:49.261Z,101797.81
2019-04-01T18:14:19.097Z,101792.66
2019-04-01T18:16:47.838Z,101797.57
2019-04-01T18:19:16.560Z,101808.08
2019-04-01T18:21:45.577Z,101807.27
2019-04-01T18:24:16.660Z,101809.98
2019-04-01T18:26:46.091Z,101810.01
2019-04-01T18:29:15.514Z,101816.50
2019-04-01T18:31:44.265Z,101814.83
2019-04-01T18:34:13.038Z,101808.00
2019-04-01T18:36:41.651Z,101811.52
2019-04-01T18:39:10.256Z,101811.98
2019-04-01T18:41:39.277Z,101814.59
2019-04-01T18:44:07.828Z,101806.02
2019-04-01T18:46:36.498Z,101813.79
2019-04-01T18:49:05.213Z,101813.79
2019-04-01T18:51:36.438Z,101814.25
2019-04-01T18:54:05.185Z,101814.25
2019-04-01T18:56:33.907Z,101818.18
2019-04-01T18:59:02.927Z,101815.63
2019-04-01T19:01:31.539Z,101815.63
2019-04-01T19:04:00.555Z,101809.61
2019-04-01T19:06:29.174Z,101815.66
2019-04-01T19:09:08.799Z,101806.23
2019-04-01T19:11:28.127Z,101810.55
2019-04-01T19:13:56.769Z,101818.75
2019-04-01T19:16:25.567Z,101822.20
2019-04-01T19:18:54.180Z,101809.73
2019-04-01T19:21:22.795Z,101826.10
2019-04-01T19:23:51.374Z,101826.11
2019-04-01T19:26:20.016Z,101828.67
2019-04-01T19:28:48.619Z,101824.81
2019-04-01T19:31:17.246Z,101825.22
2019-04-01T19:33:47.482Z,101829.09
2019-04-01T19:36:19.176Z,101823.53
2019-04-01T19:38:47.747Z,101823.08
2019-04-01T19:41:16.391Z,101826.94
2019-04-01T19:43:45.256Z,101823.50
2019-04-01T19:46:17.218Z,101816.19
2019-04-01T19:48:47.490Z,101816.19
2019-04-01T19:51:19.470Z,101820.47
2019-04-01T19:53:48.083Z,101823.47
2019-04-01T19:56:19.477Z,101816.59
2019-04-01T19:58:48.092Z,101815.70
2019-04-01T20:01:20.203Z,101819.56
2019-04-01T20:03:49.129Z,101819.56
2019-04-01T20:06:18.519Z,101812.70
2019-04-01T20:08:49.699Z,101813.55
2019-04-01T20:11:18.244Z,101810.10
2019-04-01T20:13:49.768Z,101811.80
2019-04-01T20:16:18.328Z,101811.32
2019-04-01T20:18:46.938Z,101807.91
2019-04-01T20:21:17.366Z,101812.60
2019-04-01T20:23:50.204Z,101806.61
2019-04-01T20:26:19.602Z,101806.59
2019-04-01T20:28:48.264Z,101804.44
2019-04-01T20:31:16.853Z,101805.70
2019-04-01T20:33:45.427Z,101802.26
2019-04-01T20:36:14.233Z,101791.55
2019-04-01T20:38:43.256Z,101796.67
2019-04-01T20:41:11.869Z,101800.11
2019-04-01T20:43:40.453Z,101792.77
2019-04-01T20:46:09.091Z,101787.15
2019-04-01T20:48:38.111Z,101781.17
2019-04-01T20:51:06.723Z,101783.73
2019-04-01T20:53:35.296Z,101779.84
2019-04-01T20:56:03.939Z,101784.94
2019-04-01T20:58:32.549Z,101778.53
2019-04-01T21:01:01.159Z,101775.91
2019-04-01T21:03:30.255Z,101772.45
2019-04-01T21:05:59.193Z,101777.13
2019-04-01T21:08:27.774Z,101776.29
2019-04-01T21:10:56.323Z,101767.31
2019-04-01T21:13:24.900Z,101769.86
2019-04-01T21:15:53.802Z,101762.57
2019-04-01T21:18:22.719Z,101770.66
2019-04-01T21:20:51.303Z,101766.80
2019-04-01T21:23:19.849Z,101766.83
2019-04-01T21:25:48.420Z,101768.55
2019-04-01T21:28:16.973Z,101762.06
2019-04-01T21:30:45.549Z,101755.20
2019-04-01T21:33:16.168Z,101754.74
2019-04-01T21:35:46.479Z,101753.94
2019-04-01T21:38:15.031Z,101750.98
2019-04-01T21:40:45.891Z,101745.02
2019-04-01T21:43:17.474Z,101750.66
2019-04-01T21:45:49.464Z,101738.64
2019-04-01T21:48:18.383Z,101738.67
2019-04-01T21:50:46.958Z,101731.41
2019-04-01T21:53:15.504Z,101731.02
2019-04-01T21:55:46.168Z,101725.87
2019-04-01T21:58:16.460Z,101726.33
2019-04-01T22:00:57.291Z,101725.48
2019-04-01T22:03:25.980Z,101722.89
2019-04-01T22:05:54.625Z,101718.63
2019-04-01T22:08:23.179Z,101715.61
2019-04-01T22:10:51.822Z,101716.89
2019-04-01T22:13:20.778Z,101706.60
2019-04-01T22:15:50.189Z,101706.17
2019-04-01T22:18:19.186Z,101708.77
2019-04-01T22:20:47.918Z,101710.05
2019-04-01T22:23:18.008Z,101701.88
2019-04-01T22:25:48.123Z,101702.30
2019-04-01T22:28:19.605Z,101691.58
2019-04-01T22:30:48.342Z,101692.00
2019-04-01T22:33:16.938Z,101685.13
2019-04-01T22:35:45.575Z,101685.56
2019-04-01T22:38:25.064Z,101679.10
2019-04-01T22:40:47.233Z,101679.55
2019-04-01T22:43:17.661Z,101676.55
2019-04-01T22:45:49.632Z,101673.95
2019-04-01T22:48:18.199Z,101678.26
2019-04-01T22:50:49.529Z,101675.23
2019-04-01T22:53:18.488Z,101670.53
2019-04-01T22:55:47.655Z,101665.80
2019-04-01T22:58:19.402Z,101664.50
2019-04-01T23:00:48.354Z,101658.48
2019-04-01T23:03:16.912Z,101658.48
2019-04-01T23:05:48.030Z,101657.22
2019-04-01T23:08:18.113Z,101650.78
2019-04-01T23:10:48.229Z,101650.34
2019-04-01T23:13:20.148Z,101649.92
2019-04-01T23:15:49.110Z,101652.50
2019-04-01T23:18:17.656Z,101652.06
2019-04-01T23:20:48.991Z,101650.35
2019-04-01T23:23:17.528Z,101640.45
2019-04-01T23:25:49.394Z,101638.73
2019-04-01T23:28:17.949Z,101638.73
2019-04-01T23:30:48.158Z,101633.17
2019-04-01T23:33:17.604Z,101629.72
2019-04-01T23:35:46.506Z,101628.44
2019-04-01T23:38:15.195Z,101625.00
2019-04-01T23:40:43.778Z,101620.28
2019-04-01T23:43:12.328Z,101629.30
2019-04-01T23:45:40.908Z,101620.72
2019-04-01T23:48:09.465Z,101615.12
2019-04-01T23:50:38.296Z,101616.84
2019-04-01T23:53:07.064Z,101609.55
2019-04-01T23:55:35.643Z,101606.53
2019-04-01T23:58:04.264Z,101604.82
